sensor_id;sensor_type;location;lat;lon;timestamp;pressure;altitude;pressure_sealevel;temperature;humidity
51031;BME280;37058;41.442;23.240;2022-09-27T00:01:11;99597.91;;;18.81;97.83
51031;BME280;37058;41.442;23.240;2022-09-27T00:03:38;99598.34;;;18.75;98.33
51031;BME280;37058;41.442;23.240;2022-09-27T00:06:13;99593.78;;;18.70;99.23
51031;BME280;37058;41.442;23.240;2022-09-27T00:08:40;99583.38;;;18.67;99.80
51031;BME280;37058;41.442;23.240;2022-09-27T00:11:16;99593.31;;;18.68;99.87
51031;BME280;37058;41.442;23.240;2022-09-27T00:13:44;99588.44;;;18.65;99.30
51031;BME280;37058;41.442;23.240;2022-09-27T00:16:10;99591.03;;;18.61;97.12
51031;BME280;37058;41.442;23.240;2022-09-27T00:18:36;99588.28;;;18.61;99.24
51031;BME280;37058;41.442;23.240;2022-09-27T00:21:08;99600.97;;;18.62;94.30
51031;BME280;37058;41.442;23.240;2022-09-27T00:23:35;99587.31;;;18.66;92.05
51031;BME280;37058;41.442;23.240;2022-09-27T00:26:01;99572.16;;;18.72;90.39
51031;BME280;37058;41.442;23.240;2022-09-27T00:28:28;99579.81;;;18.75;87.54
51031;BME280;37058;41.442;23.240;2022-09-27T00:30:54;99571.69;;;18.79;85.03
51031;BME280;37058;41.442;23.240;2022-09-27T00:33:20;99566.13;;;18.88;84.42
51031;BME280;37058;41.442;23.240;2022-09-27T00:35:46;99556.84;;;18.92;84.78
51031;BME280;37058;41.442;23.240;2022-09-27T00:38:12;99537.16;;;18.94;83.58
51031;BME280;37058;41.442;23.240;2022-09-27T00:40:39;99535.22;;;18.94;83.50
51031;BME280;37058;41.442;23.240;2022-09-27T00:43:18;99535.84;;;19.00;83.21
51031;BME280;37058;41.442;23.240;2022-09-27T00:45:58;99548.56;;;18.92;86.66
51031;BME280;37058;41.442;23.240;2022-09-27T00:48:30;99536.19;;;18.81;88.24
51031;BME280;37058;41.442;23.240;2022-09-27T00:51:01;99532.28;;;18.73;91.70
51031;BME280;37058;41.442;23.240;2022-09-27T00:53:44;99537.53;;;18.66;95.74
51031;BME280;37058;41.442;23.240;2022-09-27T00:56:24;99529.72;;;18.51;97.48
51031;BME280;37058;41.442;23.240;2022-09-27T00:59:06;99519.66;;;18.37;98.79
51031;BME280;37058;41.442;23.240;2022-09-27T01:01:34;99526.81;;;18.38;99.39
51031;BME280;37058;41.442;23.240;2022-09-27T01:04:15;99527.13;;;18.37;99.40
51031;BME280;37058;41.442;23.240;2022-09-27T01:06:43;99516.41;;;18.35;99.90
51031;BME280;37058;41.442;23.240;2022-09-27T01:09:10;99519.16;;;18.35;99.65
51031;BME280;37058;41.442;23.240;2022-09-27T01:12:18;99538.03;;;18.33;99.59
51031;BME280;37058;41.442;23.240;2022-09-27T01:18:06;99515.94;;;18.33;100.00
51031;BME280;37058;41.442;23.240;2022-09-27T01:23:46;99502.91;;;18.34;100.00
51031;BME280;37058;41.442;23.240;2022-09-27T01:29:44;99496.56;;;18.42;99.85
51031;BME280;37058;41.442;23.240;2022-09-27T01:32:39;99482.88;;;18.46;99.40
51031;BME280;37058;41.442;23.240;2022-09-27T01:38:41;99506.00;;;18.32;100.00
51031;BME280;37058;41.442;23.240;2022-09-27T01:41:36;99513.47;;;18.32;100.00
51031;BME280;37058;41.442;23.240;2022-09-27T01:46:54;99484.22;;;18.31;100.00
51031;BME280;37058;41.442;23.240;2022-09-27T01:49:56;99484.06;;;18.36;100.00
51031;BME280;37058;41.442;23.240;2022-09-27T01:52:31;99489.75;;;18.39;99.64
51031;BME280;37058;41.442;23.240;2022-09-27T01:55:00;99498.34;;;18.38;99.89
51031;BME280;37058;41.442;23.240;2022-09-27T01:57:37;99482.91;;;18.37;100.00
51031;BME280;37058;41.442;23.240;2022-09-27T02:00:10;99475.44;;;18.37;99.98
51031;BME280;37058;41.442;23.240;2022-09-27T02:05:14;99456.56;;;18.39;99.13
51031;BME280;37058;41.442;23.240;2022-09-27T02:07:56;99455.41;;;18.40;98.39
51031;BME280;37058;41.442;23.240;2022-09-27T02:10:39;99451.84;;;18.40;98.41
51031;BME280;37058;41.442;23.240;2022-09-27T02:13:21;99451.03;;;18.39;98.54
51031;BME280;37058;41.442;23.240;2022-09-27T02:18:45;99441.47;;;18.28;99.97
51031;BME280;37058;41.442;23.240;2022-09-27T02:21:17;99422.75;;;18.25;100.00
51031;BME280;37058;41.442;23.240;2022-09-27T02:23:53;99420.66;;;18.22;100.00
51031;BME280;37058;41.442;23.240;2022-09-27T02:26:34;99422.78;;;18.16;100.00
51031;BME280;37058;41.442;23.240;2022-09-27T02:29:19;99415.97;;;18.14;100.00
51031;BME280;37058;41.442;23.240;2022-09-27T02:31:49;99406.22;;;18.08;100.00
51031;BME280;37058;41.442;23.240;2022-09-27T02:34:19;99396.31;;;18.07;100.00
51031;BME280;37058;41.442;23.240;2022-09-27T02:36:47;99402.97;;;18.06;100.00
51031;BME280;37058;41.442;23.240;2022-09-27T02:39:13;99409.63;;;18.05;100.00
51031;BME280;37058;41.442;23.240;2022-09-27T02:41:39;99419.56;;;18.06;100.00
51031;BME280;37058;41.442;23.240;2022-09-27T02:44:09;99426.56;;;18.03;100.00
51031;BME280;37058;41.442;23.240;2022-09-27T03:01:37;99384.25;;;18.20;95.20
51031;BME280;37058;41.442;23.240;2022-09-27T03:04:33;99402.97;;;18.23;95.75
51031;BME280;37058;41.442;23.240;2022-09-27T03:07:00;99402.28;;;18.26;96.75
51031;BME280;37058;41.442;23.240;2022-09-27T03:09:45;99396.78;;;18.09;97.83
51031;BME280;37058;41.442;23.240;2022-09-27T03:12:13;99401.34;;;18.05;98.52
51031;BME280;37058;41.442;23.240;2022-09-27T03:14:39;99412.91;;;17.89;99.62
51031;BME280;37058;41.442;23.240;2022-09-27T03:17:05;99408.81;;;17.69;100.00
51031;BME280;37058;41.442;23.240;2022-09-27T03:19:31;99401.34;;;17.52;100.00
51031;BME280;37058;41.442;23.240;2022-09-27T03:21:57;99408.78;;;17.43;100.00
51031;BME280;37058;41.442;23.240;2022-09-27T03:24:23;99397.25;;;17.41;100.00
51031;BME280;37058;41.442;23.240;2022-09-27T03:26:49;99401.31;;;17.35;100.00
51031;BME280;37058;41.442;23.240;2022-09-27T03:29:15;99396.59;;;17.36;100.00
51031;BME280;37058;41.442;23.240;2022-09-27T03:31:41;99419.69;;;17.40;100.00
51031;BME280;37058;41.442;23.240;2022-09-27T03:34:07;99408.63;;;17.40;100.00
51031;BME280;37058;41.442;23.240;2022-09-27T03:36:33;99397.91;;;17.38;100.00
51031;BME280;37058;41.442;23.240;2022-09-27T03:38:59;99396.75;;;17.39;100.00
51031;BME280;37058;41.442;23.240;2022-09-27T03:41:25;99398.91;;;17.42;100.00
51031;BME280;37058;41.442;23.240;2022-09-27T03:43:50;99408.63;;;17.40;100.00
51031;BME280;37058;41.442;23.240;2022-09-27T03:46:16;99409.25;;;17.37;100.00
51031;BME280;37058;41.442;23.240;2022-09-27T03:48:42;99395.94;;;17.39;100.00
51031;BME280;37058;41.442;23.240;2022-09-27T03:51:08;99384.25;;;17.42;100.00
51031;BME280;37058;41.442;23.240;2022-09-27T03:53:37;99389.16;;;17.45;100.00
51031;BME280;37058;41.442;23.240;2022-09-27T03:56:03;99394.34;;;17.46;100.00
51031;BME280;37058;41.442;23.240;2022-09-27T03:58:29;99392.38;;;17.47;100.00
51031;BME280;37058;41.442;23.240;2022-09-27T04:00:55;99379.06;;;17.49;100.00
51031;BME280;37058;41.442;23.240;2022-09-27T04:03:20;99376.16;;;17.54;100.00
51031;BME280;37058;41.442;23.240;2022-09-27T04:05:46;99393.53;;;17.54;100.00
51031;BME280;37058;41.442;23.240;2022-09-27T04:08:12;99400.69;;;17.55;100.00
51031;BME280;37058;41.442;23.240;2022-09-27T04:10:38;99407.00;;;17.56;100.00
51031;BME280;37058;41.442;23.240;2022-09-27T04:13:05;99415.44;;;17.60;100.00
51031;BME280;37058;41.442;23.240;2022-09-27T04:15:31;99395.50;;;17.63;100.00
51031;BME280;37058;41.442;23.240;2022-09-27T04:17:57;99402.63;;;17.64;100.00
51031;BME280;37058;41.442;23.240;2022-09-27T04:20:23;99390.47;;;17.65;100.00
51031;BME280;37058;41.442;23.240;2022-09-27T04:22:49;99376.50;;;17.70;100.00
51031;BME280;37058;41.442;23.240;2022-09-27T04:25:15;99370.81;;;17.75;100.00
51031;BME280;37058;41.442;23.240;2022-09-27T04:27:45;99376.81;;;17.77;100.00
51031;BME280;37058;41.442;23.240;2022-09-27T04:30:13;99373.44;;;17.80;100.00
51031;BME280;37058;41.442;23.240;2022-09-27T04:32:43;99378.13;;;17.80;100.00
51031;BME280;37058;41.442;23.240;2022-09-27T04:35:13;99375.06;;;17.81;100.00
51031;BME280;37058;41.442;23.240;2022-09-27T04:37:58;99381.56;;;17.85;100.00
51031;BME280;37058;41.442;23.240;2022-09-27T04:40:25;99372.13;;;17.86;100.00
51031;BME280;37058;41.442;23.240;2022-09-27T04:42:51;99368.38;;;17.91;100.00
51031;BME280;37058;41.442;23.240;2022-09-27T04:45:18;99368.38;;;17.91;100.00
51031;BME280;37058;41.442;23.240;2022-09-27T04:47:49;99376.31;;;17.92;100.00
51031;BME280;37058;41.442;23.240;2022-09-27T04:50:17;99370.34;;;17.90;100.00
51031;BME280;37058;41.442;23.240;2022-09-27T04:52:43;99351.81;;;17.82;100.00
51031;BME280;37058;41.442;23.240;2022-09-27T04:55:10;99353.59;;;17.78;100.00
51031;BME280;37058;41.442;23.240;2022-09-27T04:57:36;99351.13;;;17.76;100.00
51031;BME280;37058;41.442;23.240;2022-09-27T05:00:03;99348.06;;;17.69;100.00
51031;BME280;37058;41.442;23.240;2022-09-27T05:02:29;99361.22;;;17.64;100.00
51031;BME280;37058;41.442;23.240;2022-09-27T05:04:56;99384.94;;;17.56;100.00
51031;BME280;37058;41.442;23.240;2022-09-27T05:07:25;99390.31;;;17.52;100.00
51031;BME280;37058;41.442;23.240;2022-09-27T05:09:51;99382.63;;;17.49;100.00
51031;BME280;37058;41.442;23.240;2022-09-27T05:12:18;99356.19;;;17.48;100.00
51031;BME280;37058;41.442;23.240;2022-09-27T05:14:44;99338.81;;;17.48;100.00
51031;BME280;37058;41.442;23.240;2022-09-27T05:17:11;99349.53;;;17.49;100.00
51031;BME280;37058;41.442;23.240;2022-09-27T05:19:37;99342.06;;;17.50;100.00
51031;BME280;37058;41.442;23.240;2022-09-27T05:22:07;99337.84;;;17.52;100.00
51031;BME280;37058;41.442;23.240;2022-09-27T05:24:33;99344.81;;;17.59;100.00
51031;BME280;37058;41.442;23.240;2022-09-27T05:27:01;99355.06;;;17.58;100.00
51031;BME280;37058;41.442;23.240;2022-09-27T05:29:27;99349.19;;;17.60;100.00
51031;BME280;37058;41.442;23.240;2022-09-27T05:31:53;99342.56;;;17.61;100.00
51031;BME280;37058;41.442;23.240;2022-09-27T05:34:19;99336.53;;;17.59;100.00
51031;BME280;37058;41.442;23.240;2022-09-27T05:36:48;99340.91;;;17.60;100.00
51031;BME280;37058;41.442;23.240;2022-09-27T05:39:15;99339.28;;;17.59;100.00
51031;BME280;37058;41.442;23.240;2022-09-27T05:41:45;99347.91;;;17.66;100.00
51031;BME280;37058;41.442;23.240;2022-09-27T05:44:13;99347.59;;;17.67;100.00
51031;BME280;37058;41.442;23.240;2022-09-27T05:46:39;99344.50;;;17.69;100.00
51031;BME280;37058;41.442;23.240;2022-09-27T05:49:05;99349.69;;;17.70;100.00
51031;BME280;37058;41.442;23.240;2022-09-27T05:51:31;99363.66;;;17.74;100.00
51031;BME280;37058;41.442;23.240;2022-09-27T05:53:57;99362.69;;;17.79;100.00
51031;BME280;37058;41.442;23.240;2022-09-27T05:56:23;99360.59;;;17.84;100.00
51031;BME280;37058;41.442;23.240;2022-09-27T05:58:52;99355.56;;;17.86;100.00
51031;BME280;37058;41.442;23.240;2022-09-27T06:01:18;99371.63;;;17.93;100.00
51031;BME280;37058;41.442;23.240;2022-09-27T06:03:44;99375.03;;;17.98;100.00
51031;BME280;37058;41.442;23.240;2022-09-27T06:06:10;99372.09;;;18.04;100.00
51031;BME280;37058;41.442;23.240;2022-09-27T06:08:38;99366.91;;;18.11;100.00
51031;BME280;37058;41.442;23.240;2022-09-27T06:11:10;99367.22;;;18.18;100.00
51031;BME280;37058;41.442;23.240;2022-09-27T06:13:39;99374.66;;;18.26;100.00
51031;BME280;37058;41.442;23.240;2022-09-27T06:16:07;99383.09;;;18.30;100.00
51031;BME280;37058;41.442;23.240;2022-09-27T06:18:34;99384.66;;;18.48;100.00
51031;BME280;37058;41.442;23.240;2022-09-27T06:21:02;99380.91;;;18.53;99.21
51031;BME280;37058;41.442;23.240;2022-09-27T06:23:30;99362.41;;;18.45;100.00
51031;BME280;37058;41.442;23.240;2022-09-27T06:26:05;99359.31;;;18.46;100.00
51031;BME280;37058;41.442;23.240;2022-09-27T06:28:32;99386.59;;;18.48;100.00
51031;BME280;37058;41.442;23.240;2022-09-27T06:31:03;99393.28;;;18.47;100.00
51031;BME280;37058;41.442;23.240;2022-09-27T06:33:29;99386.25;;;18.58;99.95
51031;BME280;37058;41.442;23.240;2022-09-27T06:35:55;99372.78;;;18.56;98.53
51031;BME280;37058;41.442;23.240;2022-09-27T06:38:21;99371.63;;;18.57;99.01
51031;BME280;37058;41.442;23.240;2022-09-27T06:40:49;99371.59;;;18.66;98.90
51031;BME280;37058;41.442;23.240;2022-09-27T06:43:18;99369.78;;;18.79;98.75
51031;BME280;37058;41.442;23.240;2022-09-27T06:45:45;99395.28;;;18.84;96.41
51031;BME280;37058;41.442;23.240;2022-09-27T06:48:13;99395.59;;;18.92;96.39
51031;BME280;37058;41.442;23.240;2022-09-27T06:50:43;99388.22;;;18.96;96.65
51031;BME280;37058;41.442;23.240;2022-09-27T06:53:12;99396.44;;;19.13;95.44
51031;BME280;37058;41.442;23.240;2022-09-27T06:55:39;99414.94;;;19.21;92.93
51031;BME280;37058;41.442;23.240;2022-09-27T06:58:06;99408.38;;;19.35;92.53
51031;BME280;37058;41.442;23.240;2022-09-27T07:01:08;99403.56;;;20.07;88.44
51031;BME280;37058;41.442;23.240;2022-09-27T07:03:36;99402.16;;;20.80;82.58
51031;BME280;37058;41.442;23.240;2022-09-27T07:06:11;99399.66;;;20.53;82.20
51031;BME280;37058;41.442;23.240;2022-09-27T07:08:40;99407.28;;;20.44;83.03
51031;BME280;37058;41.442;23.240;2022-09-27T07:11:06;99409.25;;;20.44;82.60
51031;BME280;37058;41.442;23.240;2022-09-27T07:13:33;99400.81;;;20.52;83.54
51031;BME280;37058;41.442;23.240;2022-09-27T07:16:02;99403.38;;;20.58;83.21
51031;BME280;37058;41.442;23.240;2022-09-27T07:18:28;99393.94;;;20.59;82.26
51031;BME280;37058;41.442;23.240;2022-09-27T07:20:54;99398.19;;;20.56;81.32
51031;BME280;37058;41.442;23.240;2022-09-27T07:23:20;99388.56;;;20.53;82.24
51031;BME280;37058;41.442;23.240;2022-09-27T07:25:46;99377.22;;;20.46;82.35
51031;BME280;37058;41.442;23.240;2022-09-27T07:28:16;99398.00;;;20.40;82.91
51031;BME280;37058;41.442;23.240;2022-09-27T07:30:43;99390.84;;;20.39;82.41
51031;BME280;37058;41.442;23.240;2022-09-27T07:33:10;99393.38;;;20.32;81.95
51031;BME280;37058;41.442;23.240;2022-09-27T07:35:38;99381.47;;;20.31;82.55
51031;BME280;37058;41.442;23.240;2022-09-27T07:38:06;99386.66;;;20.33;83.83
51031;BME280;37058;41.442;23.240;2022-09-27T07:40:36;99390.72;;;20.35;83.49
51031;BME280;37058;41.442;23.240;2022-09-27T07:43:02;99385.41;;;20.43;80.98
51031;BME280;37058;41.442;23.240;2022-09-27T07:45:30;99379.78;;;20.51;81.43
51031;BME280;37058;41.442;23.240;2022-09-27T07:47:56;99371.59;;;20.55;81.51
51031;BME280;37058;41.442;23.240;2022-09-27T07:50:22;99363.19;;;20.64;81.44
51031;BME280;37058;41.442;23.240;2022-09-27T07:52:49;99358.00;;;20.74;81.39
51031;BME280;37058;41.442;23.240;2022-09-27T07:55:16;99358.00;;;20.87;80.83
51031;BME280;37058;41.442;23.240;2022-09-27T07:57:43;99352.53;;;21.03;79.88
51031;BME280;37058;41.442;23.240;2022-09-27T08:00:16;99348.00;;;21.23;79.15
51031;BME280;37058;41.442;23.240;2022-09-27T08:02:44;99348.41;;;21.37;77.72
51031;BME280;37058;41.442;23.240;2022-09-27T08:05:12;99341.56;;;21.59;76.72
51031;BME280;37058;41.442;23.240;2022-09-27T08:07:39;99340.59;;;21.67;76.34
51031;BME280;37058;41.442;23.240;2022-09-27T08:10:08;99336.50;;;21.77;76.30
51031;BME280;37058;41.442;23.240;2022-09-27T08:12:35;99354.13;;;21.81;76.12
51031;BME280;37058;41.442;23.240;2022-09-27T08:15:02;99367.63;;;21.82;76.13
51031;BME280;37058;41.442;23.240;2022-09-27T08:17:29;99369.47;;;21.91;76.67
51031;BME280;37058;41.442;23.240;2022-09-27T08:19:55;99372.91;;;22.00;76.45
51031;BME280;37058;41.442;23.240;2022-09-27T08:22:22;99372.94;;;22.16;74.28
51031;BME280;37058;41.442;23.240;2022-09-27T08:24:48;99377.44;;;22.20;74.31
51031;BME280;37058;41.442;23.240;2022-09-27T08:27:15;99371.38;;;22.31;74.38
51031;BME280;37058;41.442;23.240;2022-09-27T08:29:41;99370.03;;;22.40;73.94
51031;BME280;37058;41.442;23.240;2022-09-27T08:32:09;99352.94;;;22.54;73.36
51031;BME280;37058;41.442;23.240;2022-09-27T08:34:36;99349.06;;;22.59;73.37
51031;BME280;37058;41.442;23.240;2022-09-27T08:37:02;99346.81;;;22.64;73.69
51031;BME280;37058;41.442;23.240;2022-09-27T08:39:28;99340.44;;;22.64;73.00
51031;BME280;37058;41.442;23.240;2022-09-27T08:47:13;99334.75;;;22.92;72.04
51031;BME280;37058;41.442;23.240;2022-09-27T08:55:51;99328.50;;;23.30;68.98
51031;BME280;37058;41.442;23.240;2022-09-27T08:58:38;99319.63;;;23.44;68.33
51031;BME280;37058;41.442;23.240;2022-09-27T09:01:14;99316.03;;;23.44;67.43
51031;BME280;37058;41.442;23.240;2022-09-27T09:03:53;99308.84;;;23.43;67.48
51031;BME280;37058;41.442;23.240;2022-09-27T09:06:32;99310.56;;;23.47;66.93
51031;BME280;37058;41.442;23.240;2022-09-27T09:23:53;99312.22;;;23.71;66.11
51031;BME280;37058;41.442;23.240;2022-09-27T09:26:33;99313.50;;;23.93;65.97
51031;BME280;37058;41.442;23.240;2022-09-27T09:32:20;99315.59;;;24.00;64.97
51031;BME280;37058;41.442;23.240;2022-09-27T09:35:21;99313.94;;;23.95;65.22
51031;BME280;37058;41.442;23.240;2022-09-27T09:37:57;99308.72;;;23.94;64.69
51031;BME280;37058;41.442;23.240;2022-09-27T09:40:41;99310.44;;;24.02;63.25
51031;BME280;37058;41.442;23.240;2022-09-27T09:43:25;99312.44;;;24.01;63.53
51031;BME280;37058;41.442;23.240;2022-09-27T09:46:14;99304.22;;;24.09;63.58
51031;BME280;37058;41.442;23.240;2022-09-27T09:51:22;99295.91;;;24.12;63.87
51031;BME280;37058;41.442;23.240;2022-09-27T09:54:03;99299.13;;;24.14;63.76
51031;BME280;37058;41.442;23.240;2022-09-27T09:56:43;99292.00;;;24.17;63.72
51031;BME280;37058;41.442;23.240;2022-09-27T09:59:24;99283.28;;;24.18;61.74
51031;BME280;37058;41.442;23.240;2022-09-27T10:01:52;99276.25;;;24.28;60.90
51031;BME280;37058;41.442;23.240;2022-09-27T10:04:25;99287.47;;;24.32;61.65
51031;BME280;37058;41.442;23.240;2022-09-27T10:06:53;99285.03;;;24.30;62.33
51031;BME280;37058;41.442;23.240;2022-09-27T10:09:25;99278.22;;;24.28;63.20
51031;BME280;37058;41.442;23.240;2022-09-27T10:11:51;99275.06;;;24.29;63.29
51031;BME280;37058;41.442;23.240;2022-09-27T10:14:21;99262.81;;;24.34;63.69
51031;BME280;37058;41.442;23.240;2022-09-27T10:16:49;99265.31;;;24.42;64.20
51031;BME280;37058;41.442;23.240;2022-09-27T10:19:29;99261.38;;;24.43;63.94
51031;BME280;37058;41.442;23.240;2022-09-27T10:22:21;99257.09;;;24.50;64.04
51031;BME280;37058;41.442;23.240;2022-09-27T10:25:03;99250.75;;;24.53;63.86
51031;BME280;37058;41.442;23.240;2022-09-27T10:27:53;99247.19;;;24.52;63.88
51031;BME280;37058;41.442;23.240;2022-09-27T10:30:32;99237.25;;;24.55;64.29
51031;BME280;37058;41.442;23.240;2022-09-27T10:33:16;99239.72;;;24.60;64.38
51031;BME280;37058;41.442;23.240;2022-09-27T10:35:46;99235.72;;;24.61;64.79
51031;BME280;37058;41.442;23.240;2022-09-27T10:38:25;99243.75;;;24.62;64.10
51031;BME280;37058;41.442;23.240;2022-09-27T10:40:54;99248.97;;;24.64;64.30
51031;BME280;37058;41.442;23.240;2022-09-27T10:43:35;99235.41;;;24.66;63.88
51031;BME280;37058;41.442;23.240;2022-09-27T10:46:29;99234.59;;;24.65;63.68
51031;BME280;37058;41.442;23.240;2022-09-27T10:49:31;99221.88;;;24.68;62.54
51031;BME280;37058;41.442;23.240;2022-09-27T10:52:05;99220.00;;;24.76;62.28
51031;BME280;37058;41.442;23.240;2022-09-27T10:54:35;99218.13;;;24.83;62.08
51031;BME280;37058;41.442;23.240;2022-09-27T10:57:08;99223.91;;;24.98;61.67
51031;BME280;37058;41.442;23.240;2022-09-27T10:59:50;99214.09;;;25.11;61.61
51031;BME280;37058;41.442;23.240;2022-09-27T11:02:21;99209.94;;;25.28;60.76
51031;BME280;37058;41.442;23.240;2022-09-27T11:08:00;99216.63;;;25.54;57.97
51031;BME280;37058;41.442;23.240;2022-09-27T11:10:32;99207.44;;;25.53;57.48
51031;BME280;37058;41.442;23.240;2022-09-27T11:13:07;99195.13;;;25.58;57.53
51031;BME280;37058;41.442;23.240;2022-09-27T11:17:15;99188.78;;;25.64;57.26
51031;BME280;37058;41.442;23.240;2022-09-27T11:25:14;99179.66;;;26.12;55.97
51031;BME280;37058;41.442;23.240;2022-09-27T11:30:23;99180.50;;;26.16;57.50
51031;BME280;37058;41.442;23.240;2022-09-27T11:36:07;99183.81;;;26.32;56.20
51031;BME280;37058;41.442;23.240;2022-09-27T11:39:10;99173.38;;;26.26;56.05
51031;BME280;37058;41.442;23.240;2022-09-27T11:41:54;99168.16;;;26.24;56.09
51031;BME280;37058;41.442;23.240;2022-09-27T11:48:09;99146.94;;;26.20;56.27
51031;BME280;37058;41.442;23.240;2022-09-27T11:50:54;99138.91;;;26.14;55.22
51031;BME280;37058;41.442;23.240;2022-09-27T11:53:52;99134.03;;;26.08;55.06
51031;BME280;37058;41.442;23.240;2022-09-27T11:59:58;99129.66;;;26.03;54.51
51031;BME280;37058;41.442;23.240;2022-09-27T12:02:40;99122.06;;;26.07;55.65
51031;BME280;37058;41.442;23.240;2022-09-27T12:10:49;99139.94;;;25.92;56.38
51031;BME280;37058;41.442;23.240;2022-09-27T12:13:49;99131.47;;;25.85;56.60
51031;BME280;37058;41.442;23.240;2022-09-27T12:16:16;99135.78;;;25.79;56.20
51031;BME280;37058;41.442;23.240;2022-09-27T12:18:44;99141.69;;;25.70;56.42
51031;BME280;37058;41.442;23.240;2022-09-27T12:21:12;99149.63;;;25.64;56.28
51031;BME280;37058;41.442;23.240;2022-09-27T12:23:48;99159.16;;;25.56;57.36
51031;BME280;37058;41.442;23.240;2022-09-27T12:26:57;99147.09;;;25.48;58.32
51031;BME280;37058;41.442;23.240;2022-09-27T12:29:26;99137.47;;;25.42;59.47
51031;BME280;37058;41.442;23.240;2022-09-27T12:32:19;99136.63;;;25.42;60.16
51031;BME280;37058;41.442;23.240;2022-09-27T12:37:52;99143.78;;;25.36;62.48
51031;BME280;37058;41.442;23.240;2022-09-27T12:40:35;99127.84;;;25.40;64.35
51031;BME280;37058;41.442;23.240;2022-09-27T12:51:20;99119.38;;;24.99;64.81
51031;BME280;37058;41.442;23.240;2022-09-27T12:57:20;99123.59;;;24.52;66.06
51031;BME280;37058;41.442;23.240;2022-09-27T13:11:23;99120.56;;;24.37;66.56
51031;BME280;37058;41.442;23.240;2022-09-27T13:13:55;99120.97;;;24.39;65.87
51031;BME280;37058;41.442;23.240;2022-09-27T13:16:23;99110.25;;;24.41;66.41
51031;BME280;37058;41.442;23.240;2022-09-27T13:18:54;99109.06;;;24.42;66.16
51031;BME280;37058;41.442;23.240;2022-09-27T13:32:38;99088.38;;;24.43;66.29
51031;BME280;37058;41.442;23.240;2022-09-27T13:35:22;99093.84;;;24.36;65.01
51031;BME280;37058;41.442;23.240;2022-09-27T13:37:59;99092.22;;;24.35;65.85
51031;BME280;37058;41.442;23.240;2022-09-27T13:40:37;99100.22;;;24.37;65.63
51031;BME280;37058;41.442;23.240;2022-09-27T13:54:04;99115.50;;;24.20;65.02
51031;BME280;37058;41.442;23.240;2022-09-27T13:56:52;99103.00;;;24.10;64.99
51031;BME280;37058;41.442;23.240;2022-09-27T13:59:45;99096.97;;;24.05;65.42
51031;BME280;37058;41.442;23.240;2022-09-27T14:02:24;99100.06;;;23.99;65.06
51031;BME280;37058;41.442;23.240;2022-09-27T14:04:52;99085.66;;;23.94;65.55
51031;BME280;37058;41.442;23.240;2022-09-27T14:07:40;99076.53;;;23.97;65.74
51031;BME280;37058;41.442;23.240;2022-09-27T14:10:14;99076.91;;;23.95;66.07
51031;BME280;37058;41.442;23.240;2022-09-27T14:12:42;99064.47;;;23.89;66.23
51031;BME280;37058;41.442;23.240;2022-09-27T14:15:22;99072.50;;;23.94;66.67
51031;BME280;37058;41.442;23.240;2022-09-27T14:17:49;99080.44;;;23.92;66.75
51031;BME280;37058;41.442;23.240;2022-09-27T14:20:38;99078.78;;;23.88;66.64
51031;BME280;37058;41.442;23.240;2022-09-27T14:23:22;99060.41;;;23.83;67.66
51031;BME280;37058;41.442;23.240;2022-09-27T14:25:53;99066.69;;;23.80;68.11
51031;BME280;37058;41.442;23.240;2022-09-27T14:28:29;99076.22;;;23.75;68.24
51031;BME280;37058;41.442;23.240;2022-09-27T14:31:06;99091.22;;;23.71;69.01
51031;BME280;37058;41.442;23.240;2022-09-27T14:33:38;99089.56;;;23.66;69.50
51031;BME280;37058;41.442;23.240;2022-09-27T14:36:06;99083.94;;;23.63;70.46
51031;BME280;37058;41.442;23.240;2022-09-27T14:38:58;99098.91;;;23.54;70.34
51031;BME280;37058;41.442;23.240;2022-09-27T14:41:25;99113.13;;;23.49;71.15
51031;BME280;37058;41.442;23.240;2022-09-27T14:43:52;99140.06;;;23.42;74.21
51031;BME280;37058;41.442;23.240;2022-09-27T14:46:27;99165.69;;;23.28;76.72
51031;BME280;37058;41.442;23.240;2022-09-27T14:48:54;99189.66;;;23.13;81.48
51031;BME280;37058;41.442;23.240;2022-09-27T14:51:30;99167.00;;;22.95;82.14
51031;BME280;37058;41.442;23.240;2022-09-27T14:53:58;99177.38;;;22.79;83.87
51031;BME280;37058;41.442;23.240;2022-09-27T14:56:33;99193.31;;;22.62;85.34
51031;BME280;37058;41.442;23.240;2022-09-27T14:59:13;99205.38;;;22.50;85.73
51031;BME280;37058;41.442;23.240;2022-09-27T15:01:50;99214.19;;;22.37;88.53
51031;BME280;37058;41.442;23.240;2022-09-27T15:04:18;99215.53;;;22.27;89.58
51031;BME280;37058;41.442;23.240;2022-09-27T15:06:46;99223.38;;;22.21;90.91
51031;BME280;37058;41.442;23.240;2022-09-27T15:09:15;99224.84;;;22.19;91.59
51031;BME280;37058;41.442;23.240;2022-09-27T15:11:50;99209.69;;;22.16;94.70
51031;BME280;37058;41.442;23.240;2022-09-27T15:14:21;99184.22;;;22.14;96.24
51031;BME280;37058;41.442;23.240;2022-09-27T15:16:51;99176.59;;;22.11;93.52
51031;BME280;37058;41.442;23.240;2022-09-27T15:19:24;99185.56;;;22.04;93.89
51031;BME280;37058;41.442;23.240;2022-09-27T15:21:52;99209.25;;;21.98;94.83
51031;BME280;37058;41.442;23.240;2022-09-27T15:24:44;99193.72;;;21.81;94.88
51031;BME280;37058;41.442;23.240;2022-09-27T15:27:23;99186.28;;;21.70;94.67
51031;BME280;37058;41.442;23.240;2022-09-27T15:29:55;99178.91;;;21.61;93.94
51031;BME280;37058;41.442;23.240;2022-09-27T15:32:26;99159.84;;;21.60;93.28
51031;BME280;37058;41.442;23.240;2022-09-27T15:34:53;99163.69;;;21.55;92.55
51031;BME280;37058;41.442;23.240;2022-09-27T15:39:53;99183.28;;;21.47;93.21
51031;BME280;37058;41.442;23.240;2022-09-27T15:42:19;99192.69;;;21.42;93.75